Time;durP1;ratioP1;P1;durP2;ratioP2;P2;SDS_P1;SDS_P2;PMS_P1;PMS_P2;Temp;Humidity;BMP_temperature;BMP_pressure;BME280_temperature;BME280_humidity;BME280_pressure;Samples;Min_cycle;Max_cycle;Signal;HPM_P1;HPM_P2
2023/03/29 00:00:27;;;;;;;2.67;1.90;;;8.00;99.90;;;;;;4990552;28;20175;-81
2023/03/29 00:02:55;;;;;;;3.88;1.73;;;8.10;99.90;;;;;;4957419;28;20179;-81
2023/03/29 00:05:21;;;;;;;3.15;1.92;;;8.10;99.90;;;;;;4991724;28;20186;-81
2023/03/29 00:08:00;;;;;;;3.30;2.00;;;8.10;99.90;;;;;;4990146;28;20227;-80
2023/03/29 00:10:27;;;;;;;4.93;1.48;;;8.10;99.90;;;;;;4990709;28;20171;-82
2023/03/29 00:12:53;;;;;;;2.90;1.55;;;8.10;99.90;;;;;;4990028;28;20230;-80
2023/03/29 00:15:21;;;;;;;2.40;1.65;;;8.20;99.90;;;;;;4973868;28;20199;-81
2023/03/29 00:17:46;;;;;;;3.83;2.15;;;8.20;99.90;;;;;;5006676;28;20201;-81
2023/03/29 00:20:12;;;;;;;3.00;1.53;;;8.10;99.90;;;;;;4969938;28;20172;-81
2023/03/29 00:22:40;;;;;;;3.50;1.87;;;8.20;99.90;;;;;;4989084;28;20183;-81
2023/03/29 00:25:08;;;;;;;2.67;1.35;;;8.10;99.90;;;;;;4973628;28;21353;-81
2023/03/29 00:27:33;;;;;;;2.65;1.50;;;8.10;99.90;;;;;;4974091;28;20190;-81
2023/03/29 00:30:01;;;;;;;2.73;1.57;;;8.10;99.90;;;;;;4990007;28;20175;-81
2023/03/29 00:32:27;;;;;;;3.85;1.40;;;8.10;99.90;;;;;;4973759;28;20178;-81
2023/03/29 00:34:53;;;;;;;3.20;1.70;;;8.10;99.90;;;;;;4991346;28;20203;-81
2023/03/29 00:37:19;;;;;;;3.28;1.63;;;8.10;99.90;;;;;;4990815;28;20293;-81
2023/03/29 00:39:45;;;;;;;2.80;1.47;;;8.20;99.90;;;;;;4974208;28;20683;-81
2023/03/29 00:42:16;;;;;;;2.28;1.20;;;8.20;99.90;;;;;;4989614;28;20585;-81
2023/03/29 00:45:19;;;;;;;3.33;1.67;;;8.20;99.90;;;;;;4990098;28;20187;-78
2023/03/29 00:48:01;;;;;;;4.22;1.80;;;8.10;99.90;;;;;;4933993;28;20691;-78
2023/03/29 00:50:36;;;;;;;2.35;1.20;;;8.20;99.90;;;;;;4977882;28;20195;-77
2023/03/29 00:53:13;;;;;;;6.63;2.20;;;8.20;99.90;;;;;;4989040;28;20269;-77
2023/03/29 00:55:53;;;;;;;3.60;1.83;;;8.20;99.90;;;;;;4990861;28;20202;-78
2023/03/29 00:58:29;;;;;;;3.28;2.13;;;8.10;99.90;;;;;;4956966;28;20252;-78
2023/03/29 01:01:02;;;;;;;3.22;1.63;;;8.20;99.90;;;;;;4989467;28;20302;-78
2023/03/29 01:03:34;;;;;;;2.80;1.27;;;8.20;99.90;;;;;;4989590;28;20185;-78
2023/03/29 01:06:04;;;;;;;2.78;1.73;;;8.20;99.90;;;;;;5005032;28;20607;-79
2023/03/29 01:08:46;;;;;;;5.30;2.55;;;8.20;99.90;;;;;;4957431;28;20518;-76
2023/03/29 01:11:26;;;;;;;2.40;1.30;;;8.20;99.90;;;;;;4964202;28;20278;-78
2023/03/29 01:14:03;;;;;;;5.40;1.80;;;8.30;99.90;;;;;;4958415;28;20314;-78
2023/03/29 01:16:31;;;;;;;2.83;1.42;;;8.30;99.90;;;;;;4972553;28;20230;-78
2023/03/29 01:18:59;;;;;;;4.45;2.15;;;8.30;99.90;;;;;;4987716;28;20170;-77
2023/03/29 01:21:46;;;;;;;4.85;2.25;;;8.30;99.90;;;;;;4983756;28;20171;-78
2023/03/29 01:24:12;;;;;;;2.63;1.60;;;8.30;99.90;;;;;;4989645;28;20175;-77
2023/03/29 01:26:50;;;;;;;3.20;1.20;;;8.40;99.90;;;;;;4989050;28;20210;-78
2023/03/29 01:29:32;;;;;;;3.00;1.58;;;8.40;99.90;;;;;;4967011;28;20628;-78
2023/03/29 01:32:10;;;;;;;2.10;1.20;;;8.40;99.90;;;;;;4938967;28;20323;-77
2023/03/29 01:35:01;;;;;;;3.75;1.60;;;8.40;99.90;;;;;;4973328;28;20270;-77
2023/03/29 01:37:31;;;;;;;1.90;1.00;;;8.40;99.90;;;;;;4989224;28;20253;-77
2023/03/29 01:39:57;;;;;;;3.83;1.88;;;8.50;99.90;;;;;;4989626;28;20235;-77
2023/03/29 01:42:45;;;;;;;2.23;1.37;;;8.50;99.90;;;;;;4973068;28;20175;-79
2023/03/29 01:45:19;;;;;;;2.65;1.30;;;8.50;99.90;;;;;;4973656;28;20583;-78
2023/03/29 01:47:58;;;;;;;2.05;1.55;;;8.60;99.90;;;;;;4976358;28;20203;-78
2023/03/29 01:50:54;;;;;;;3.25;2.05;;;8.60;99.90;;;;;;4960393;28;20179;-78
2023/03/29 01:53:34;;;;;;;2.40;1.00;;;8.60;99.90;;;;;;4960447;28;20194;-78
2023/03/29 01:56:20;;;;;;;3.38;1.50;;;8.60;99.90;;;;;;4976419;28;20293;-78
2023/03/29 01:58:51;;;;;;;3.22;1.67;;;8.60;99.90;;;;;;4960586;28;20177;-78
2023/03/29 02:01:22;;;;;;;2.78;1.38;;;8.60;99.90;;;;;;4992259;28;20262;-78
2023/03/29 02:03:50;;;;;;;4.80;1.40;;;8.70;99.90;;;;;;4992598;28;20605;-78
2023/03/29 02:06:19;;;;;;;5.80;1.60;;;8.60;99.90;;;;;;4992013;28;20186;-78
2023/03/29 02:08:46;;;;;;;3.15;1.65;;;8.60;99.90;;;;;;4976969;28;20242;-74
2023/03/29 02:11:13;;;;;;;3.47;1.65;;;8.60;99.90;;;;;;4991436;28;20655;-74
2023/03/29 02:13:39;;;;;;;2.92;1.50;;;8.60;99.90;;;;;;4991943;28;20233;-74
2023/03/29 02:16:12;;;;;;;2.35;1.30;;;8.70;99.90;;;;;;4975517;28;20203;-74
2023/03/29 02:18:44;;;;;;;2.60;1.80;;;8.70;99.90;;;;;;5008463;28;20187;-73
2023/03/29 02:21:15;;;;;;;3.50;1.55;;;8.70;99.90;;;;;;4984034;28;20183;-74
2023/03/29 02:23:45;;;;;;;2.80;1.70;;;8.70;99.90;;;;;;4996083;28;20530;-74
2023/03/29 02:26:16;;;;;;;3.03;1.52;;;8.70;99.90;;;;;;4975794;28;20649;-74
2023/03/29 02:28:42;;;;;;;3.65;1.70;;;8.70;99.90;;;;;;4991666;28;20543;-74
2023/03/29 02:31:19;;;;;;;3.10;1.35;;;8.80;99.90;;;;;;4991813;28;20187;-74
2023/03/29 02:33:51;;;;;;;2.42;1.73;;;8.70;99.90;;;;;;4975334;28;20179;-74
2023/03/29 02:36:29;;;;;;;2.60;1.52;;;8.70;99.90;;;;;;4991752;28;20207;-75
2023/03/29 02:38:57;;;;;;;2.72;1.75;;;8.70;99.90;;;;;;4959017;28;20261;-75
2023/03/29 02:41:25;;;;;;;6.93;2.58;;;8.70;99.90;;;;;;4991406;28;20179;-74
2023/03/29 02:43:54;;;;;;;3.08;1.70;;;8.70;99.90;;;;;;4974488;28;20178;-74
2023/03/29 02:46:20;;;;;;;3.40;1.65;;;8.70;99.90;;;;;;4991821;28;20179;-74
2023/03/29 02:48:50;;;;;;;2.13;1.40;;;8.70;99.90;;;;;;4959255;28;20174;-74
2023/03/29 02:51:28;;;;;;;3.72;2.00;;;8.70;99.90;;;;;;4974445;28;20174;-74
2023/03/29 02:54:07;;;;;;;3.35;1.65;;;8.80;99.90;;;;;;4991636;28;20219;-74
2023/03/29 02:56:53;;;;;;;4.05;2.00;;;8.80;99.90;;;;;;4974458;28;20206;-74
2023/03/29 02:59:21;;;;;;;3.33;1.60;;;8.70;99.90;;;;;;4975373;28;20711;-74
2023/03/29 03:01:48;;;;;;;3.25;1.88;;;8.80;99.90;;;;;;4990772;28;20167;-74
2023/03/29 03:04:17;;;;;;;2.13;1.45;;;8.80;99.90;;;;;;4975342;28;20282;-75
2023/03/29 03:06:43;;;;;;;4.60;1.40;;;8.80;99.90;;;;;;4990908;28;20199;-75
2023/03/29 03:09:09;;;;;;;2.95;1.73;;;8.90;99.90;;;;;;4991440;28;20237;-75
2023/03/29 03:11:37;;;;;;;2.45;2.08;;;8.90;99.90;;;;;;4990627;28;20671;-75
2023/03/29 03:14:04;;;;;;;3.37;1.70;;;8.90;99.90;;;;;;4991168;28;20187;-75
2023/03/29 03:16:31;;;;;;;3.85;1.60;;;8.90;99.90;;;;;;4990454;28;20657;-75
2023/03/29 03:18:57;;;;;;;2.70;1.83;;;8.90;99.90;;;;;;4983664;28;20603;-75
2023/03/29 03:21:24;;;;;;;2.63;1.42;;;8.90;99.90;;;;;;4979785;28;20191;-75
2023/03/29 03:23:52;;;;;;;2.47;1.80;;;8.90;99.90;;;;;;4974727;28;20167;-75
2023/03/29 03:26:18;;;;;;;2.80;2.20;;;8.90;99.90;;;;;;4974359;28;20416;-75
2023/03/29 03:28:47;;;;;;;2.53;1.43;;;8.90;99.90;;;;;;4990393;28;20245;-75
2023/03/29 03:31:32;;;;;;;2.35;1.30;;;8.90;99.90;;;;;;4991460;28;20587;-75
2023/03/29 03:34:30;;;;;;;2.97;1.45;;;9.00;99.90;;;;;;4989740;28;20178;-75
2023/03/29 03:37:00;;;;;;;3.90;1.58;;;9.00;99.90;;;;;;4990659;28;20187;-75
2023/03/29 03:39:29;;;;;;;2.83;1.52;;;9.10;99.90;;;;;;4990485;28;20185;-75
2023/03/29 03:41:55;;;;;;;1.92;1.30;;;9.10;99.90;;;;;;4990455;28;20195;-75
2023/03/29 03:44:21;;;;;;;2.25;1.40;;;9.10;99.90;;;;;;4990655;28;20194;-75
2023/03/29 03:47:04;;;;;;;5.18;1.90;;;9.10;99.90;;;;;;4974597;28;20202;-75
2023/03/29 03:49:31;;;;;;;2.75;1.77;;;9.20;99.90;;;;;;4974287;28;20179;-75
2023/03/29 03:51:57;;;;;;;2.40;1.23;;;9.20;99.90;;;;;;4989832;28;20179;-75
2023/03/29 03:54:23;;;;;;;3.83;1.57;;;9.20;99.90;;;;;;4990247;28;20176;-74
2023/03/29 03:57:27;;;;;;;6.13;1.85;;;9.20;99.90;;;;;;4991073;28;20217;-74
2023/03/29 03:59:53;;;;;;;2.10;1.35;;;9.20;99.90;;;;;;4974282;28;20167;-74
2023/03/29 04:02:25;;;;;;;5.82;2.00;;;9.30;99.90;;;;;;4973346;28;20171;-74
2023/03/29 04:04:51;;;;;;;2.50;1.60;;;9.30;99.90;;;;;;5006903;28;20282;-74
2023/03/29 04:07:18;;;;;;;3.92;1.50;;;9.40;99.90;;;;;;5006029;28;20225;-75
2023/03/29 04:10:13;;;;;;;2.58;1.10;;;9.40;99.90;;;;;;4977525;28;20195;-74
2023/03/29 04:12:51;;;;;;;3.58;1.77;;;9.40;99.90;;;;;;4973583;28;20289;-74
2023/03/29 04:15:19;;;;;;;2.50;1.35;;;9.50;99.90;;;;;;5001628;28;20549;-74
2023/03/29 04:17:55;;;;;;;2.58;1.30;;;9.50;99.90;;;;;;4978175;28;20193;-74
2023/03/29 04:20:34;;;;;;;1.80;1.40;;;9.50;99.90;;;;;;5002436;28;20777;-74
2023/03/29 04:23:00;;;;;;;2.60;1.65;;;9.50;99.90;;;;;;4989646;28;20171;-74
2023/03/29 04:25:28;;;;;;;3.80;1.50;;;9.50;99.90;;;;;;4989645;28;20179;-74
2023/03/29 04:28:00;;;;;;;3.47;1.35;;;9.50;99.90;;;;;;4974852;28;20302;-76
2023/03/29 04:30:36;;;;;;;1.90;1.25;;;9.50;99.90;;;;;;4973529;28;20178;-76
2023/03/29 04:33:12;;;;;;;3.67;1.83;;;9.50;99.90;;;;;;4989859;28;20186;-76
2023/03/29 04:35:42;;;;;;;3.25;1.70;;;9.50;99.90;;;;;;4989644;28;20203;-76
2023/03/29 04:38:12;;;;;;;2.90;1.45;;;9.50;99.90;;;;;;5006085;28;20194;-77
2023/03/29 04:40:39;;;;;;;2.45;1.75;;;9.50;99.90;;;;;;4973142;28;20174;-76
2023/03/29 04:43:13;;;;;;;3.00;1.35;;;9.50;99.90;;;;;;4973607;28;20179;-76
2023/03/29 04:45:46;;;;;;;2.63;1.40;;;9.50;99.90;;;;;;4958347;28;20229;-76
2023/03/29 04:48:26;;;;;;;3.53;1.83;;;9.50;99.90;;;;;;4975625;28;20202;-76
2023/03/29 04:50:53;;;;;;;2.85;1.60;;;9.50;99.90;;;;;;4973493;28;20186;-76
2023/03/29 04:53:20;;;;;;;4.80;3.35;;;9.50;99.90;;;;;;4989573;28;20182;-76
2023/03/29 04:55:46;;;;;;;3.05;1.55;;;9.50;99.90;;;;;;4989744;28;20203;-77
2023/03/29 04:58:17;;;;;;;2.30;1.42;;;9.60;99.90;;;;;;4957865;28;20202;-75
2023/03/29 05:00:44;;;;;;;2.73;1.30;;;9.60;99.90;;;;;;4973664;28;20187;-77
2023/03/29 05:03:24;;;;;;;6.38;2.13;;;9.60;99.90;;;;;;4989105;28;20186;-77
2023/03/29 05:06:05;;;;;;;1.90;1.55;;;9.60;99.90;;;;;;4973942;28;20182;-77
2023/03/29 05:08:33;;;;;;;2.17;1.50;;;9.60;99.90;;;;;;4960418;28;20206;-77
2023/03/29 05:11:09;;;;;;;3.17;1.95;;;9.60;99.90;;;;;;4987878;28;20855;-77
2023/03/29 05:13:36;;;;;;;2.63;1.65;;;9.70;99.90;;;;;;4996330;28;20179;-77
2023/03/29 05:16:03;;;;;;;2.20;1.48;;;9.70;99.90;;;;;;4996652;28;20674;-77
2023/03/29 05:18:29;;;;;;;2.38;1.52;;;9.70;99.90;;;;;;5012360;28;20274;-77
2023/03/29 05:20:56;;;;;;;4.25;1.90;;;9.70;99.90;;;;;;5002071;28;20722;-78
2023/03/29 05:23:23;;;;;;;2.85;1.70;;;9.70;99.90;;;;;;5016661;28;20539;-77
2023/03/29 05:26:08;;;;;;;4.85;1.73;;;9.80;99.90;;;;;;5004823;28;20566;-77
2023/03/29 05:28:35;;;;;;;4.55;1.85;;;9.80;99.90;;;;;;5012642;28;20209;-77
2023/03/29 05:31:04;;;;;;;3.00;1.77;;;9.80;99.90;;;;;;5012127;28;20216;-77
2023/03/29 05:33:33;;;;;;;3.08;1.67;;;9.80;99.90;;;;;;4996778;28;20181;-76
2023/03/29 05:36:01;;;;;;;2.85;1.65;;;9.80;99.90;;;;;;4996065;28;20206;-79
2023/03/29 05:38:28;;;;;;;2.70;1.50;;;9.80;99.90;;;;;;5012669;28;20230;-79
2023/03/29 05:40:55;;;;;;;2.53;1.50;;;9.80;99.90;;;;;;5012201;28;20185;-78
2023/03/29 05:43:41;;;;;;;3.22;1.48;;;9.80;99.90;;;;;;4997735;28;20178;-80
2023/03/29 05:46:06;;;;;;;2.63;1.63;;;9.80;99.90;;;;;;4996154;28;20572;-82
2023/03/29 05:48:35;;;;;;;7.20;2.15;;;9.80;99.90;;;;;;4995405;28;20213;-82
2023/03/29 05:51:02;;;;;;;3.13;2.05;;;9.80;99.90;;;;;;5012405;28;20189;-82
2023/03/29 05:53:27;;;;;;;5.00;1.80;;;9.80;99.90;;;;;;4995388;28;20182;-81
2023/03/29 05:55:53;;;;;;;2.10;1.40;;;9.80;99.90;;;;;;5007223;28;20587;-81
2023/03/29 05:58:25;;;;;;;2.75;1.38;;;9.80;99.90;;;;;;4976323;28;20245;-81
2023/03/29 06:00:51;;;;;;;3.28;1.40;;;9.90;99.90;;;;;;4992749;28;20174;-82
2023/03/29 06:03:52;;;;;;;3.28;2.00;;;9.90;99.90;;;;;;4989757;28;20171;-83
2023/03/29 06:06:22;;;;;;;4.60;1.92;;;10.00;99.90;;;;;;5014617;28;20186;-82
2023/03/29 06:08:48;;;;;;;6.50;3.77;;;10.00;99.90;;;;;;5013148;28;20289;-82
2023/03/29 06:11:23;;;;;;;5.10;1.42;;;10.00;99.90;;;;;;4962694;28;21225;-81
2023/03/29 06:14:07;;;;;;;2.97;1.58;;;10.00;99.90;;;;;;4993762;28;20175;-81
2023/03/29 06:16:37;;;;;;;4.40;1.67;;;10.00;99.90;;;;;;4975414;28;20211;-82
2023/03/29 06:19:04;;;;;;;3.08;1.95;;;10.00;99.90;;;;;;4992911;28;20175;-81
2023/03/29 06:21:30;;;;;;;2.80;1.83;;;10.10;99.90;;;;;;4975086;28;20224;-82
2023/03/29 06:23:56;;;;;;;2.60;1.70;;;10.10;99.90;;;;;;4992263;28;20175;-83
2023/03/29 06:26:23;;;;;;;3.22;1.50;;;10.10;99.90;;;;;;4975738;28;20183;-81
2023/03/29 06:28:49;;;;;;;5.03;1.88;;;10.20;99.90;;;;;;4992527;28;20182;-82
2023/03/29 06:31:19;;;;;;;5.10;2.05;;;10.10;99.90;;;;;;4993317;28;20182;-81
2023/03/29 06:33:48;;;;;;;6.03;1.77;;;10.10;99.90;;;;;;4977529;28;20202;-80
2023/03/29 06:36:24;;;;;;;4.55;1.73;;;10.10;99.90;;;;;;5010000;28;20693;-83
2023/03/29 06:38:59;;;;;;;4.07;1.90;;;10.20;99.90;;;;;;4977723;28;20266;-84
2023/03/29 06:41:47;;;;;;;2.88;1.60;;;10.20;99.90;;;;;;4964785;28;20545;-85
2023/03/29 06:44:48;;;;;;;4.30;1.80;;;10.30;99.90;;;;;;4991980;28;20186;-86
2023/03/29 06:47:18;;;;;;;4.57;1.60;;;10.30;99.90;;;;;;4992144;28;20191;-85
2023/03/29 06:49:44;;;;;;;4.07;2.07;;;10.30;99.90;;;;;;4991648;28;20171;-85
2023/03/29 06:52:26;;;;;;;2.35;1.50;;;10.40;99.90;;;;;;4975354;28;20592;-85
2023/03/29 06:54:52;;;;;;;5.53;2.10;;;10.40;99.90;;;;;;5009130;28;20171;-86
2023/03/29 06:57:18;;;;;;;2.80;2.30;;;10.50;99.90;;;;;;4992821;28;20680;-83
2023/03/29 06:59:45;;;;;;;4.17;2.07;;;10.50;99.90;;;;;;4991414;28;20171;-83
2023/03/29 07:02:17;;;;;;;4.30;1.98;;;10.50;99.90;;;;;;5011805;28;20766;-84
2023/03/29 07:04:47;;;;;;;4.00;1.80;;;10.60;99.90;;;;;;4986609;28;20170;-84
2023/03/29 07:07:52;;;;;;;2.95;1.52;;;10.60;99.90;;;;;;5011311;28;20198;-84
2023/03/29 07:10:44;;;;;;;3.63;1.58;;;10.70;99.90;;;;;;5002877;28;20205;-85
2023/03/29 07:13:41;;;;;;;2.83;1.63;;;10.80;99.90;;;;;;5012012;28;20174;-86
2023/03/29 07:16:11;;;;;;;3.85;1.42;;;10.90;99.90;;;;;;5007387;28;20202;-85
2023/03/29 07:18:56;;;;;;;2.60;1.73;;;10.90;99.90;;;;;;4999506;28;20628;-86
2023/03/29 07:21:40;;;;;;;2.90;1.55;;;11.00;99.90;;;;;;4991840;28;20776;-83
2023/03/29 07:24:09;;;;;;;5.22;1.67;;;11.10;99.90;;;;;;4992177;28;20163;-82
2023/03/29 07:26:35;;;;;;;5.43;2.00;;;11.20;99.90;;;;;;5007633;28;20289;-85
2023/03/29 07:29:01;;;;;;;4.27;1.47;;;11.30;99.90;;;;;;4958072;28;20262;-84
2023/03/29 07:31:28;;;;;;;2.60;1.30;;;11.30;99.90;;;;;;4990906;28;20270;-85
2023/03/29 07:34:05;;;;;;;3.03;1.80;;;11.30;99.90;;;;;;4974755;28;20719;-84
2023/03/29 07:36:33;;;;;;;2.90;1.75;;;11.30;99.90;;;;;;4974822;28;20298;-85
2023/03/29 07:39:00;;;;;;;3.72;1.80;;;11.40;99.90;;;;;;4974810;28;20171;-85
2023/03/29 07:41:27;;;;;;;3.55;1.77;;;11.40;99.90;;;;;;4974675;28;20233;-85
2023/03/29 07:44:07;;;;;;;3.30;1.92;;;11.40;99.90;;;;;;4975123;28;20273;-85
2023/03/29 07:46:37;;;;;;;3.92;1.58;;;11.50;99.90;;;;;;4990408;28;20179;-85
2023/03/29 07:49:03;;;;;;;5.80;2.15;;;11.40;99.90;;;;;;4990650;28;20170;-84
2023/03/29 07:51:29;;;;;;;8.63;2.08;;;11.50;99.90;;;;;;4989800;28;20200;-79
2023/03/29 07:54:02;;;;;;;4.90;1.77;;;11.60;99.90;;;;;;4990893;28;20183;-79
2023/03/29 07:56:46;;;;;;;2.25;1.73;;;11.70;99.90;;;;;;4991262;28;20214;-79
2023/03/29 07:59:19;;;;;;;2.85;1.70;;;11.70;99.90;;;;;;4979373;28;20236;-79
2023/03/29 08:01:54;;;;;;;6.22;1.60;;;11.80;99.90;;;;;;4976339;28;20242;-79
2023/03/29 08:04:33;;;;;;;4.18;1.70;;;12.00;99.90;;;;;;4960193;28;20171;-79
2023/03/29 08:07:22;;;;;;;5.97;1.90;;;12.10;99.90;;;;;;4991225;28;20199;-79
2023/03/29 08:10:00;;;;;;;2.60;1.70;;;12.20;99.90;;;;;;4990735;28;20195;-79
2023/03/29 08:12:41;;;;;;;4.57;2.00;;;12.40;99.90;;;;;;4989477;28;20181;-79
2023/03/29 08:15:09;;;;;;;4.05;2.00;;;12.50;99.90;;;;;;4990465;28;20603;-79
2023/03/29 08:17:37;;;;;;;2.70;1.75;;;12.60;99.90;;;;;;4990420;28;20195;-80
2023/03/29 08:20:06;;;;;;;5.28;2.58;;;12.80;99.90;;;;;;4973423;28;20175;-80
2023/03/29 08:22:32;;;;;;;2.83;1.77;;;12.80;99.90;;;;;;4990257;28;20186;-80
2023/03/29 08:25:06;;;;;;;7.97;2.60;;;13.00;99.90;;;;;;4991326;28;20174;-80
2023/03/29 08:27:37;;;;;;;5.07;2.30;;;13.20;99.90;;;;;;5006655;28;20659;-81
2023/03/29 08:30:08;;;;;;;5.67;2.37;;;13.40;99.90;;;;;;4973799;28;20598;-80
2023/03/29 08:32:36;;;;;;;2.70;1.50;;;13.60;99.90;;;;;;4990099;28;20590;-79
2023/03/29 08:35:05;;;;;;;2.67;1.70;;;13.70;99.90;;;;;;5006160;28;20638;-79
2023/03/29 08:37:37;;;;;;;3.72;1.70;;;13.80;99.90;;;;;;4975086;28;20680;-80
2023/03/29 08:40:03;;;;;;;4.50;2.20;;;13.80;99.90;;;;;;4958095;28;20178;-79
2023/03/29 08:43:27;;;;;;;4.07;2.10;;;13.80;99.90;;;;;;4993991;28;20193;-79
2023/03/29 08:46:41;;;;;;;3.93;1.50;;;13.70;99.90;;;;;;4952421;28;20611;-78
2023/03/29 08:49:27;;;;;;;5.00;1.65;;;13.60;99.90;;;;;;4980325;28;20590;-80
2023/03/29 08:51:59;;;;;;;2.93;1.37;;;13.50;99.90;;;;;;4977177;28;20540;-81
2023/03/29 08:54:29;;;;;;;3.90;2.13;;;13.50;99.90;;;;;;4996088;28;20614;-78
2023/03/29 08:57:22;;;;;;;6.18;1.95;;;13.50;99.90;;;;;;4998495;28;20732;-78
2023/03/29 08:59:58;;;;;;;8.70;2.15;;;13.40;99.90;;;;;;4982666;28;20175;-80
2023/03/29 09:02:26;;;;;;;3.65;1.40;;;13.40;99.90;;;;;;4993552;28;20171;-80
2023/03/29 09:05:19;;;;;;;2.65;1.52;;;13.40;99.90;;;;;;4993741;28;20180;-80
2023/03/29 09:07:55;;;;;;;3.50;1.70;;;13.50;99.90;;;;;;4979041;28;20219;-79
2023/03/29 09:10:29;;;;;;;3.15;1.48;;;13.50;99.90;;;;;;4977214;28;20662;-80
2023/03/29 09:13:17;;;;;;;4.37;2.50;;;13.50;99.90;;;;;;4976786;28;20221;-80
2023/03/29 09:16:04;;;;;;;6.03;2.28;;;13.50;99.90;;;;;;4994433;28;20707;-80
2023/03/29 09:18:44;;;;;;;2.83;1.58;;;13.50;99.90;;;;;;4977131;28;20202;-79
2023/03/29 09:21:25;;;;;;;6.00;2.07;;;13.50;99.90;;;;;;4992779;28;20632;-79
2023/03/29 09:24:07;;;;;;;3.75;2.10;;;13.50;99.90;;;;;;4993619;28;20597;-79
2023/03/29 09:27:08;;;;;;;4.85;1.65;;;13.50;99.90;;;;;;4992848;28;20227;-80
2023/03/29 09:29:57;;;;;;;5.25;2.08;;;13.50;99.90;;;;;;5005481;28;20553;-80
2023/03/29 09:32:52;;;;;;;4.18;1.85;;;13.60;99.90;;;;;;4976235;28;20229;-80
2023/03/29 09:35:42;;;;;;;1.80;1.45;;;13.60;99.90;;;;;;4993221;28;20202;-79
2023/03/29 09:38:12;;;;;;;3.93;1.73;;;13.60;99.90;;;;;;4976793;28;20559;-80
2023/03/29 09:40:48;;;;;;;4.43;2.60;;;13.70;99.90;;;;;;4960803;28;20621;-78
2023/03/29 09:43:34;;;;;;;4.90;1.87;;;13.70;99.90;;;;;;4976593;28;21134;-77
2023/03/29 09:46:05;;;;;;;4.03;1.65;;;13.70;99.90;;;;;;4993167;28;21072;-79
2023/03/29 09:48:38;;;;;;;5.93;2.10;;;13.70;99.90;;;;;;4976380;28;20293;-79
2023/03/29 09:51:06;;;;;;;4.27;1.93;;;13.80;99.90;;;;;;4984223;28;20648;-78
2023/03/29 09:53:32;;;;;;;3.63;2.07;;;13.90;99.90;;;;;;5006549;28;20597;-78
2023/03/29 09:56:14;;;;;;;3.60;1.53;;;13.90;99.90;;;;;;4995823;28;20632;-78
2023/03/29 09:58:47;;;;;;;3.27;2.13;;;14.00;99.90;;;;;;4980765;28;20647;-79
2023/03/29 10:01:16;;;;;;;4.87;2.13;;;14.00;99.90;;;;;;5028507;28;20589;-78
2023/03/29 10:03:51;;;;;;;3.77;2.13;;;14.10;99.90;;;;;;4995597;28;20608;-79
2023/03/29 10:06:19;;;;;;;5.30;2.40;;;14.10;99.90;;;;;;5012470;28;21211;-79
2023/03/29 10:08:57;;;;;;;6.17;2.30;;;14.20;99.90;;;;;;4968811;28;21516;-79
2023/03/29 10:11:36;;;;;;;4.67;2.37;;;14.30;99.90;;;;;;5011662;28;20986;-78
2023/03/29 10:14:11;;;;;;;4.00;2.33;;;14.40;99.90;;;;;;4995302;28;20597;-79
2023/03/29 10:16:40;;;;;;;4.53;3.00;;;14.60;99.90;;;;;;5012860;28;20976;-78
2023/03/29 10:19:33;;;;;;;7.87;2.87;;;14.70;99.90;;;;;;5012068;28;20597;-79
2023/03/29 10:22:04;;;;;;;5.07;3.10;;;14.80;99.90;;;;;;4984249;28;20640;-79
2023/03/29 10:24:30;;;;;;;3.87;2.60;;;14.80;99.90;;;;;;4993516;28;20926;-79
2023/03/29 10:27:02;;;;;;;5.43;2.77;;;14.90;99.90;;;;;;4975936;28;20644;-79
2023/03/29 10:29:37;;;;;;;6.07;2.37;;;14.90;99.90;;;;;;4992318;28;20918;-79
2023/03/29 10:32:14;;;;;;;3.60;1.90;;;15.00;99.90;;;;;;4991419;28;21243;-78
2023/03/29 10:34:40;;;;;;;4.23;2.10;;;15.20;99.90;;;;;;4993681;28;20592;-79
2023/03/29 10:37:09;;;;;;;6.50;2.50;;;15.40;99.90;;;;;;4991829;28;21063;-78
2023/03/29 10:39:36;;;;;;;5.17;2.13;;;15.60;99.90;;;;;;4992194;28;20586;-79
2023/03/29 10:42:03;;;;;;;5.57;3.63;;;15.90;99.90;;;;;;4991360;28;20665;-79
2023/03/29 10:44:35;;;;;;;5.70;2.30;;;16.20;99.90;;;;;;4991884;28;20586;-79
2023/03/29 10:47:19;;;;;;;5.70;1.90;;;16.30;99.90;;;;;;4989044;28;20740;-79
2023/03/29 10:49:51;;;;;;;3.20;1.80;;;16.50;99.90;;;;;;5000495;28;20594;-79
2023/03/29 10:52:17;;;;;;;5.50;2.60;;;16.80;99.90;;;;;;4990679;28;20590;-79
2023/03/29 10:54:44;;;;;;;4.70;2.33;;;17.10;99.90;;;;;;4991433;28;20629;-79
2023/03/29 10:57:15;;;;;;;4.97;2.23;;;17.30;99.90;;;;;;4991362;28;21113;-79
2023/03/29 11:00:03;;;;;;;5.57;2.90;;;17.50;99.90;;;;;;4992640;28;20602;-78
2023/03/29 11:03:03;;;;;;;5.30;3.37;;;17.80;99.90;;;;;;4991133;28;20617;-79
2023/03/29 11:06:02;;;;;;;5.30;2.30;;;18.00;99.90;;;;;;4991930;28;20630;-80
2023/03/29 11:08:35;;;;;;;4.13;2.30;;;18.10;99.90;;;;;;4972410;28;20627;-79
2023/03/29 11:11:29;;;;;;;3.50;1.90;;;18.20;99.90;;;;;;4973724;28;20650;-78
2023/03/29 11:13:59;;;;;;;3.37;1.37;;;18.30;99.90;;;;;;4974491;28;20637;-78
2023/03/29 11:16:42;;;;;;;4.03;2.30;;;18.20;99.90;;;;;;4972341;28;20634;-78
2023/03/29 11:19:23;;;;;;;3.03;1.60;;;18.10;99.90;;;;;;4973365;28;20571;-78
2023/03/29 11:22:11;;;;;;;6.80;2.87;;;18.00;99.90;;;;;;4987950;28;20598;-78
2023/03/29 11:24:55;;;;;;;4.40;3.10;;;17.70;99.90;;;;;;4992410;28;20574;-78
2023/03/29 11:27:53;;;;;;;9.43;4.40;;;17.50;99.90;;;;;;4993757;28;20673;-78
2023/03/29 11:30:23;;;;;;;6.40;2.30;;;17.40;99.90;;;;;;4991680;28;20593;-78
2023/03/29 11:33:01;;;;;;;6.47;3.30;;;17.30;99.90;;;;;;4990521;28;20584;-78
2023/03/29 11:35:36;;;;;;;4.23;2.00;;;17.20;99.90;;;;;;4974968;28;20626;-78
2023/03/29 11:38:25;;;;;;;3.90;2.03;;;17.20;99.90;;;;;;4990392;28;20602;-79
2023/03/29 11:41:01;;;;;;;4.50;2.00;;;17.20;99.90;;;;;;4974652;28;20621;-79
2023/03/29 11:43:32;;;;;;;2.80;1.50;;;17.40;99.90;;;;;;4995332;28;20697;-80
2023/03/29 11:46:27;;;;;;;3.83;2.00;;;17.50;99.90;;;;;;5002510;28;21871;-80
2023/03/29 11:48:59;;;;;;;5.40;2.13;;;17.70;99.90;;;;;;4996245;28;20946;-80
2023/03/29 11:51:53;;;;;;;4.00;2.00;;;18.10;99.90;;;;;;4990699;28;20616;-80
2023/03/29 11:54:34;;;;;;;2.90;1.60;;;18.40;99.90;;;;;;4975207;28;20574;-79
2023/03/29 11:57:27;;;;;;;5.70;2.30;;;18.50;99.90;;;;;;4990626;28;20728;-78
2023/03/29 12:00:11;;;;;;;3.43;1.47;;;18.70;99.90;;;;;;4990452;28;20613;-79
2023/03/29 12:02:39;;;;;;;2.90;1.57;;;18.70;99.90;;;;;;4958452;28;20578;-79
2023/03/29 12:05:29;;;;;;;3.77;1.70;;;18.90;99.90;;;;;;4990587;28;21233;-79
2023/03/29 12:08:15;;;;;;;3.23;1.30;;;18.90;99.90;;;;;;4991536;28;20861;-79
2023/03/29 12:10:47;;;;;;;5.57;1.73;;;19.00;99.90;;;;;;4990499;28;21176;-80
2023/03/29 12:13:27;;;;;;;2.77;1.60;;;19.20;99.90;;;;;;4990561;28;20602;-79
2023/03/29 12:16:12;;;;;;;3.17;1.10;;;19.40;99.90;;;;;;4990708;28;20978;-79
2023/03/29 12:18:45;;;;;;;3.87;0.90;;;19.50;99.90;;;;;;4975134;28;20602;-80
2023/03/29 12:21:16;;;;;;;1.87;0.80;;;19.80;99.90;;;;;;4992423;28;20609;-80
2023/03/29 12:23:43;;;;;;;2.67;0.70;;;20.00;99.90;;;;;;4974751;28;20574;-80
2023/03/29 12:26:32;;;;;;;2.27;1.10;;;20.20;99.90;;;;;;4971022;28;20591;-80
2023/03/29 12:29:28;;;;;;;3.47;0.90;;;20.40;99.90;;;;;;4970223;28;20634;-78
2023/03/29 12:32:37;;;;;;;2.40;1.10;;;20.60;99.90;;;;;;4971559;28;20893;-79
2023/03/29 12:35:43;;;;;;;3.10;1.20;;;20.90;99.90;;;;;;4979812;28;20645;-80
2023/03/29 12:38:29;;;;;;;2.03;0.90;;;21.30;99.90;;;;;;4971778;28;20610;-79
2023/03/29 12:41:18;;;;;;;2.47;1.00;;;21.70;99.90;;;;;;4970607;28;21030;-79
2023/03/29 12:44:04;;;;;;;2.17;0.90;;;21.90;99.90;;;;;;4995637;28;20585;-79
2023/03/29 12:46:50;;;;;;;3.50;0.70;;;22.20;99.90;;;;;;5010912;28;20708;-79
2023/03/29 12:49:25;;;;;;;2.57;0.90;;;22.50;99.90;;;;;;4995742;28;21239;-79
2023/03/29 12:51:56;;;;;;;1.70;0.73;;;22.70;99.90;;;;;;4973001;28;20598;-79
2023/03/29 12:54:25;;;;;;;2.03;0.70;;;22.90;99.90;;;;;;4991277;28;20613;-79
2023/03/29 12:56:51;;;;;;;1.50;0.70;;;23.10;99.90;;;;;;4989989;28;20650;-81
2023/03/29 12:59:42;;;;;;;2.63;0.70;;;23.30;99.90;;;;;;4990688;28;20582;-82
2023/03/29 13:02:13;;;;;;;1.60;0.70;;;23.40;99.90;;;;;;4989293;28;20654;-81
2023/03/29 13:04:45;;;;;;;1.50;0.60;;;23.40;99.90;;;;;;4972934;28;20578;-80
2023/03/29 13:07:22;;;;;;;2.40;0.80;;;23.40;99.90;;;;;;4990775;28;20614;-81
2023/03/29 13:10:05;;;;;;;1.50;0.60;;;23.30;99.90;;;;;;4989913;28;20955;-81
2023/03/29 13:12:34;;;;;;;1.93;0.60;;;23.20;99.90;;;;;;4989469;28;20586;-81
2023/03/29 13:15:04;;;;;;;2.57;0.70;;;23.10;99.90;;;;;;4989128;28;20581;-81
2023/03/29 13:17:38;;;;;;;1.70;0.67;;;22.90;99.90;;;;;;4973598;28;20622;-82
2023/03/29 13:20:13;;;;;;;2.07;0.80;;;22.90;99.90;;;;;;4989008;28;20593;-81
2023/03/29 13:23:12;;;;;;;1.70;0.60;;;22.70;99.90;;;;;;4989470;28;20590;-81
2023/03/29 13:26:16;;;;;;;1.90;0.70;;;22.70;99.90;;;;;;4989146;28;20606;-81
2023/03/29 13:29:09;;;;;;;2.13;0.70;;;22.50;99.90;;;;;;4976128;28;20720;-81
2023/03/29 13:31:55;;;;;;;2.93;1.30;;;22.40;99.90;;;;;;4992589;28;20998;-80